sensor_id;sensor_type;location;lat;lon;timestamp;pressure;altitude;pressure_sealevel;temperature;humidity
54022;BME280;39936;51.058;17.220;2024-02-21T00:00:20;102391.76;;;5.08;100.00
54022;BME280;39936;51.058;17.220;2024-02-21T00:04:10;102391.03;;;5.08;100.00
54022;BME280;39936;51.058;17.220;2024-02-21T00:07:29;102387.38;;;5.05;100.00
54022;BME280;39936;51.058;17.220;2024-02-21T00:10:53;102350.37;;;4.83;100.00
54022;BME280;39936;51.058;17.220;2024-02-21T00:14:57;102355.35;;;4.83;100.00
54022;BME280;39936;51.058;17.220;2024-02-21T00:19:01;102373.95;;;5.04;100.00
54022;BME280;39936;51.058;17.220;2024-02-21T00:23:01;102377.59;;;5.14;100.00
54022;BME280;39936;51.058;17.220;2024-02-21T00:26:38;102385.78;;;5.28;100.00
54022;BME280;39936;51.058;17.220;2024-02-21T00:30:20;102349.30;;;5.17;100.00
54022;BME280;39936;51.058;17.220;2024-02-21T00:33:59;102378.96;;;5.44;100.00
54022;BME280;39936;51.058;17.220;2024-02-21T00:37:43;102372.22;;;5.45;100.00
54022;BME280;39936;51.058;17.220;2024-02-21T00:41:24;102369.23;;;5.43;100.00
54022;BME280;39936;51.058;17.220;2024-02-21T00:45:32;102363.06;;;5.30;100.00
54022;BME280;39936;51.058;17.220;2024-02-21T00:48:53;102362.83;;;5.29;100.00
54022;BME280;39936;51.058;17.220;2024-02-21T00:52:35;102364.44;;;5.25;100.00
54022;BME280;39936;51.058;17.220;2024-02-21T00:56:45;102357.05;;;5.20;100.00
54022;BME280;39936;51.058;17.220;2024-02-21T01:00:04;102356.59;;;5.14;100.00
54022;BME280;39936;51.058;17.220;2024-02-21T01:03:50;102353.53;;;5.09;100.00
54022;BME280;39936;51.058;17.220;2024-02-21T01:07:21;102347.70;;;5.07;100.00
54022;BME280;39936;51.058;17.220;2024-02-21T01:11:04;102341.70;;;5.01;100.00
54022;BME280;39936;51.058;17.220;2024-02-21T01:14:42;102342.17;;;4.92;100.00
54022;BME280;39936;51.058;17.220;2024-02-21T01:21:59;102312.52;;;4.78;100.00
54022;BME280;39936;51.058;17.220;2024-02-21T01:25:16;102330.73;;;4.92;100.00
54022;BME280;39936;51.058;17.220;2024-02-21T01:28:36;102329.91;;;4.92;100.00
54022;BME280;39936;51.058;17.220;2024-02-21T01:32:16;102320.06;;;4.87;100.00
54022;BME280;39936;51.058;17.220;2024-02-21T01:35:40;102329.51;;;4.93;100.00
54022;BME280;39936;51.058;17.220;2024-02-21T01:39:01;102322.56;;;4.96;100.00
54022;BME280;39936;51.058;17.220;2024-02-21T01:42:20;102316.95;;;4.97;100.00
54022;BME280;39936;51.058;17.220;2024-02-21T01:45:43;102313.55;;;4.99;100.00
54022;BME280;39936;51.058;17.220;2024-02-21T01:49:04;102287.54;;;4.85;100.00
54022;BME280;39936;51.058;17.220;2024-02-21T01:52:24;102308.59;;;5.04;100.00
54022;BME280;39936;51.058;17.220;2024-02-21T01:55:46;102305.23;;;5.09;100.00
54022;BME280;39936;51.058;17.220;2024-02-21T01:59:25;102304.59;;;5.13;100.00
54022;BME280;39936;51.058;17.220;2024-02-21T02:02:59;102299.36;;;5.09;100.00
54022;BME280;39936;51.058;17.220;2024-02-21T02:06:19;102296.98;;;5.08;100.00
54022;BME280;39936;51.058;17.220;2024-02-21T02:09:38;102293.10;;;5.10;100.00
54022;BME280;39936;51.058;17.220;2024-02-21T02:12:59;102287.86;;;5.13;100.00
54022;BME280;39936;51.058;17.220;2024-02-21T02:17:23;102287.48;;;5.16;100.00
54022;BME280;39936;51.058;17.220;2024-02-21T02:21:03;102274.59;;;5.18;100.00
54022;BME280;39936;51.058;17.220;2024-02-21T02:24:28;102234.13;;;5.04;100.00
54022;BME280;39936;51.058;17.220;2024-02-21T02:28:34;102259.46;;;5.24;100.00
54022;BME280;39936;51.058;17.220;2024-02-21T02:31:53;102261.97;;;5.31;100.00
54022;BME280;39936;51.058;17.220;2024-02-21T02:35:46;102252.66;;;5.27;100.00
54022;BME280;39936;51.058;17.220;2024-02-21T02:39:30;102258.73;;;5.22;100.00
54022;BME280;39936;51.058;17.220;2024-02-21T02:43:22;102263.45;;;5.15;100.00
54022;BME280;39936;51.058;17.220;2024-02-21T02:47:11;102255.37;;;5.13;100.00
54022;BME280;39936;51.058;17.220;2024-02-21T02:50:56;102250.73;;;5.11;100.00
54022;BME280;39936;51.058;17.220;2024-02-21T02:54:45;102249.79;;;4.99;100.00
54022;BME280;39936;51.058;17.220;2024-02-21T02:58:49;102245.47;;;4.85;100.00
54022;BME280;39936;51.058;17.220;2024-02-21T03:02:13;102248.04;;;4.82;100.00
54022;BME280;39936;51.058;17.220;2024-02-21T03:05:49;102238.63;;;4.78;100.00
54022;BME280;39936;51.058;17.220;2024-02-21T03:09:39;102243.70;;;4.82;100.00
54022;BME280;39936;51.058;17.220;2024-02-21T03:13:10;102239.63;;;4.82;100.00
54022;BME280;39936;51.058;17.220;2024-02-21T03:16:28;102240.33;;;4.79;100.00
54022;BME280;39936;51.058;17.220;2024-02-21T03:20:54;102239.43;;;4.74;100.00
54022;BME280;39936;51.058;17.220;2024-02-21T03:24:19;102201.80;;;4.45;100.00
54022;BME280;39936;51.058;17.220;2024-02-21T03:27:39;102233.02;;;4.67;100.00
54022;BME280;39936;51.058;17.220;2024-02-21T03:31:04;102232.88;;;4.66;100.00
54022;BME280;39936;51.058;17.220;2024-02-21T03:34:58;102228.77;;;4.60;100.00
54022;BME280;39936;51.058;17.220;2024-02-21T03:38:37;102230.02;;;4.57;100.00
54022;BME280;39936;51.058;17.220;2024-02-21T03:42:15;102197.62;;;4.32;100.00
54022;BME280;39936;51.058;17.220;2024-02-21T03:45:38;102227.67;;;4.47;100.00
54022;BME280;39936;51.058;17.220;2024-02-21T03:49:38;102210.11;;;4.34;100.00
54022;BME280;39936;51.058;17.220;2024-02-21T03:52:57;102226.18;;;4.44;100.00
54022;BME280;39936;51.058;17.220;2024-02-21T03:56:18;102213.85;;;4.35;100.00
54022;BME280;39936;51.058;17.220;2024-02-21T03:59:37;102218.38;;;4.37;100.00
54022;BME280;39936;51.058;17.220;2024-02-21T04:03:03;102220.63;;;4.35;100.00
54022;BME280;39936;51.058;17.220;2024-02-21T04:06:24;102222.13;;;4.36;100.00
54022;BME280;39936;51.058;17.220;2024-02-21T04:10:08;102216.22;;;4.42;100.00
54022;BME280;39936;51.058;17.220;2024-02-21T04:13:48;102214.58;;;4.47;100.00
54022;BME280;39936;51.058;17.220;2024-02-21T04:17:07;102213.54;;;4.41;100.00
54022;BME280;39936;51.058;17.220;2024-02-21T04:20:36;102210.74;;;4.39;100.00
54022;BME280;39936;51.058;17.220;2024-02-21T04:24:05;102205.06;;;4.38;100.00
54022;BME280;39936;51.058;17.220;2024-02-21T04:27:31;102198.92;;;4.35;100.00
54022;BME280;39936;51.058;17.220;2024-02-21T04:31:16;102194.06;;;4.34;100.00
54022;BME280;39936;51.058;17.220;2024-02-21T04:34:41;102189.54;;;4.31;100.00
54022;BME280;39936;51.058;17.220;2024-02-21T04:38:22;102181.53;;;4.27;100.00
54022;BME280;39936;51.058;17.220;2024-02-21T04:41:42;102157.17;;;4.08;100.00
54022;BME280;39936;51.058;17.220;2024-02-21T04:45:21;102181.27;;;4.29;100.00
54022;BME280;39936;51.058;17.220;2024-02-21T04:48:41;102174.24;;;4.19;100.00
54022;BME280;39936;51.058;17.220;2024-02-21T04:52:08;102183.17;;;4.22;100.00
54022;BME280;39936;51.058;17.220;2024-02-21T04:55:48;102174.17;;;4.23;100.00
54022;BME280;39936;51.058;17.220;2024-02-21T04:59:25;102176.20;;;4.24;100.00
54022;BME280;39936;51.058;17.220;2024-02-21T05:02:51;102171.91;;;4.28;100.00
54022;BME280;39936;51.058;17.220;2024-02-21T05:06:51;102171.53;;;4.26;100.00
54022;BME280;39936;51.058;17.220;2024-02-21T05:10:12;102169.16;;;4.24;100.00
54022;BME280;39936;51.058;17.220;2024-02-21T05:13:54;102168.56;;;4.24;100.00
54022;BME280;39936;51.058;17.220;2024-02-21T05:17:15;102155.91;;;4.22;100.00
54022;BME280;39936;51.058;17.220;2024-02-21T05:20:43;102137.49;;;4.14;100.00
54022;BME280;39936;51.058;17.220;2024-02-21T05:24:35;102157.67;;;4.34;100.00
54022;BME280;39936;51.058;17.220;2024-02-21T05:28:11;102155.59;;;4.37;100.00
54022;BME280;39936;51.058;17.220;2024-02-21T05:35:31;102157.50;;;4.39;100.00
54022;BME280;39936;51.058;17.220;2024-02-21T05:38:57;102156.42;;;4.41;100.00
54022;BME280;39936;51.058;17.220;2024-02-21T05:42:18;102154.73;;;4.45;100.00
54022;BME280;39936;51.058;17.220;2024-02-21T05:45:41;102115.42;;;4.29;100.00
54022;BME280;39936;51.058;17.220;2024-02-21T05:49:06;102142.47;;;4.53;100.00
54022;BME280;39936;51.058;17.220;2024-02-21T05:52:38;102128.83;;;4.55;100.00
54022;BME280;39936;51.058;17.220;2024-02-21T05:56:13;102130.88;;;4.51;100.00
54022;BME280;39936;51.058;17.220;2024-02-21T05:59:38;102133.00;;;4.55;100.00
54022;BME280;39936;51.058;17.220;2024-02-21T06:03:08;102105.13;;;4.39;100.00
54022;BME280;39936;51.058;17.220;2024-02-21T06:06:50;102134.57;;;4.60;100.00
54022;BME280;39936;51.058;17.220;2024-02-21T06:10:12;102136.65;;;4.61;100.00
54022;BME280;39936;51.058;17.220;2024-02-21T06:13:39;102137.73;;;4.65;100.00
54022;BME280;39936;51.058;17.220;2024-02-21T06:17:24;102133.55;;;4.65;100.00
54022;BME280;39936;51.058;17.220;2024-02-21T06:21:09;102138.45;;;4.72;100.00
54022;BME280;39936;51.058;17.220;2024-02-21T06:24:37;102138.12;;;4.76;100.00
54022;BME280;39936;51.058;17.220;2024-02-21T06:28:03;102140.14;;;4.78;100.00
54022;BME280;39936;51.058;17.220;2024-02-21T06:31:55;102128.49;;;4.80;100.00
54022;BME280;39936;51.058;17.220;2024-02-21T06:35:24;102128.86;;;4.90;100.00
54022;BME280;39936;51.058;17.220;2024-02-21T06:38:53;102122.27;;;4.95;100.00
54022;BME280;39936;51.058;17.220;2024-02-21T06:42:19;102082.83;;;4.75;100.00
54022;BME280;39936;51.058;17.220;2024-02-21T06:45:41;102121.52;;;4.97;100.00
54022;BME280;39936;51.058;17.220;2024-02-21T06:49:37;102115.30;;;4.89;100.00
54022;BME280;39936;51.058;17.220;2024-02-21T06:53:44;102104.45;;;4.91;100.00
54022;BME280;39936;51.058;17.220;2024-02-21T06:57:09;102126.29;;;5.05;100.00
54022;BME280;39936;51.058;17.220;2024-02-21T07:00:31;102126.21;;;5.04;100.00
54022;BME280;39936;51.058;17.220;2024-02-21T07:04:00;102129.97;;;5.10;100.00
54022;BME280;39936;51.058;17.220;2024-02-21T07:07:35;102124.23;;;5.15;100.00
54022;BME280;39936;51.058;17.220;2024-02-21T07:11:01;102117.41;;;5.15;100.00
54022;BME280;39936;51.058;17.220;2024-02-21T07:14:33;102108.06;;;5.09;100.00
54022;BME280;39936;51.058;17.220;2024-02-21T07:17:53;102117.71;;;5.16;100.00
54022;BME280;39936;51.058;17.220;2024-02-21T07:21:15;102111.17;;;5.20;100.00
54022;BME280;39936;51.058;17.220;2024-02-21T07:25:10;102113.19;;;5.30;100.00
54022;BME280;39936;51.058;17.220;2024-02-21T07:28:35;102104.86;;;5.45;100.00
54022;BME280;39936;51.058;17.220;2024-02-21T07:32:42;102105.08;;;5.56;100.00
54022;BME280;39936;51.058;17.220;2024-02-21T07:36:42;102080.68;;;5.51;100.00
54022;BME280;39936;51.058;17.220;2024-02-21T07:40:14;102099.89;;;5.78;100.00
54022;BME280;39936;51.058;17.220;2024-02-21T07:43:40;102103.98;;;5.90;100.00
54022;BME280;39936;51.058;17.220;2024-02-21T07:47:31;102103.80;;;5.94;100.00
54022;BME280;39936;51.058;17.220;2024-02-21T07:50:56;102100.55;;;6.03;100.00
54022;BME280;39936;51.058;17.220;2024-02-21T07:54:15;102098.85;;;6.07;100.00
54022;BME280;39936;51.058;17.220;2024-02-21T07:57:32;102092.18;;;6.06;100.00
54022;BME280;39936;51.058;17.220;2024-02-21T08:01:20;102092.91;;;6.20;100.00
54022;BME280;39936;51.058;17.220;2024-02-21T08:04:40;102081.40;;;6.18;100.00
54022;BME280;39936;51.058;17.220;2024-02-21T08:08:45;102082.46;;;6.24;100.00
54022;BME280;39936;51.058;17.220;2024-02-21T08:12:25;102078.42;;;6.20;100.00
54022;BME280;39936;51.058;17.220;2024-02-21T08:16:28;102072.18;;;6.21;100.00
54022;BME280;39936;51.058;17.220;2024-02-21T08:19:45;102038.05;;;6.04;100.00
54022;BME280;39936;51.058;17.220;2024-02-21T08:23:09;102067.20;;;6.25;100.00
54022;BME280;39936;51.058;17.220;2024-02-21T08:26:29;102056.09;;;6.21;100.00
54022;BME280;39936;51.058;17.220;2024-02-21T08:29:54;102059.91;;;6.28;100.00
54022;BME280;39936;51.058;17.220;2024-02-21T08:33:33;102054.22;;;6.28;100.00
54022;BME280;39936;51.058;17.220;2024-02-21T08:36:53;102058.37;;;6.34;100.00
54022;BME280;39936;51.058;17.220;2024-02-21T08:40:16;102060.55;;;6.35;100.00
54022;BME280;39936;51.058;17.220;2024-02-21T08:43:42;102059.30;;;6.39;100.00
54022;BME280;39936;51.058;17.220;2024-02-21T08:47:02;102055.82;;;6.43;100.00
54022;BME280;39936;51.058;17.220;2024-02-21T08:50:37;102055.56;;;6.54;100.00
54022;BME280;39936;51.058;17.220;2024-02-21T08:53:59;102032.44;;;6.51;100.00
54022;BME280;39936;51.058;17.220;2024-02-21T08:57:18;102047.84;;;6.66;100.00
54022;BME280;39936;51.058;17.220;2024-02-21T09:00:40;102006.43;;;6.35;100.00
54022;BME280;39936;51.058;17.220;2024-02-21T09:03:59;102037.21;;;6.58;100.00
54022;BME280;39936;51.058;17.220;2024-02-21T09:07:38;102044.92;;;6.68;100.00
54022;BME280;39936;51.058;17.220;2024-02-21T09:11:00;102045.62;;;6.78;100.00
54022;BME280;39936;51.058;17.220;2024-02-21T09:14:21;102041.27;;;6.87;100.00
54022;BME280;39936;51.058;17.220;2024-02-21T09:17:46;102040.26;;;6.95;100.00
54022;BME280;39936;51.058;17.220;2024-02-21T09:21:08;102041.66;;;7.00;100.00
54022;BME280;39936;51.058;17.220;2024-02-21T09:24:53;102035.33;;;6.96;100.00
54022;BME280;39936;51.058;17.220;2024-02-21T09:28:15;102040.09;;;7.04;100.00
54022;BME280;39936;51.058;17.220;2024-02-21T09:31:34;102037.85;;;7.01;100.00
54022;BME280;39936;51.058;17.220;2024-02-21T09:35:30;102037.34;;;7.01;100.00
54022;BME280;39936;51.058;17.220;2024-02-21T09:39:21;102039.30;;;6.98;100.00
54022;BME280;39936;51.058;17.220;2024-02-21T09:42:47;102040.05;;;6.96;100.00
54022;BME280;39936;51.058;17.220;2024-02-21T09:46:18;102035.66;;;7.01;100.00
54022;BME280;39936;51.058;17.220;2024-02-21T09:49:35;102038.32;;;7.00;100.00
54022;BME280;39936;51.058;17.220;2024-02-21T09:52:59;102023.80;;;7.01;100.00
54022;BME280;39936;51.058;17.220;2024-02-21T09:56:46;102032.34;;;7.07;100.00
54022;BME280;39936;51.058;17.220;2024-02-21T10:00:45;102031.84;;;7.17;100.00
54022;BME280;39936;51.058;17.220;2024-02-21T10:03:57;102027.57;;;7.31;100.00
54022;BME280;39936;51.058;17.220;2024-02-21T10:07:10;102018.12;;;7.35;100.00
54022;BME280;39936;51.058;17.220;2024-02-21T10:10:28;102021.05;;;7.34;100.00
54022;BME280;39936;51.058;17.220;2024-02-21T10:14:09;102024.30;;;7.31;100.00
54022;BME280;39936;51.058;17.220;2024-02-21T10:17:27;102004.48;;;7.13;100.00
54022;BME280;39936;51.058;17.220;2024-02-21T10:21:02;102019.26;;;7.20;100.00
54022;BME280;39936;51.058;17.220;2024-02-21T10:24:28;102017.79;;;7.13;100.00
54022;BME280;39936;51.058;17.220;2024-02-21T10:27:49;102018.29;;;7.13;100.00
54022;BME280;39936;51.058;17.220;2024-02-21T10:31:23;102020.00;;;7.09;100.00
54022;BME280;39936;51.058;17.220;2024-02-21T10:35:04;102019.80;;;7.08;100.00
54022;BME280;39936;51.058;17.220;2024-02-21T10:38:30;102020.98;;;7.05;100.00
54022;BME280;39936;51.058;17.220;2024-02-21T10:42:00;102014.02;;;6.98;100.00
54022;BME280;39936;51.058;17.220;2024-02-21T10:53:07;102015.58;;;6.95;100.00
54022;BME280;39936;51.058;17.220;2024-02-21T10:56:57;102000.22;;;7.01;100.00
54022;BME280;39936;51.058;17.220;2024-02-21T11:01:08;101994.35;;;7.12;100.00
54022;BME280;39936;51.058;17.220;2024-02-21T11:04:25;101985.06;;;7.19;100.00
54022;BME280;39936;51.058;17.220;2024-02-21T11:07:52;101977.05;;;7.28;100.00
54022;BME280;39936;51.058;17.220;2024-02-21T11:11:06;101968.35;;;7.32;100.00
54022;BME280;39936;51.058;17.220;2024-02-21T11:14:27;101962.36;;;7.40;100.00
54022;BME280;39936;51.058;17.220;2024-02-21T11:17:54;101962.16;;;7.45;100.00
54022;BME280;39936;51.058;17.220;2024-02-21T11:21:40;101957.13;;;7.49;100.00
54022;BME280;39936;51.058;17.220;2024-02-21T11:25:06;101957.64;;;7.46;100.00
54022;BME280;39936;51.058;17.220;2024-02-21T11:28:29;101956.19;;;7.36;100.00
54022;BME280;39936;51.058;17.220;2024-02-21T11:31:53;101956.10;;;7.39;100.00
54022;BME280;39936;51.058;17.220;2024-02-21T11:35:22;101949.24;;;7.45;100.00
54022;BME280;39936;51.058;17.220;2024-02-21T11:38:45;101934.13;;;7.48;100.00
54022;BME280;39936;51.058;17.220;2024-02-21T11:42:27;101924.87;;;7.44;100.00
54022;BME280;39936;51.058;17.220;2024-02-21T11:45:43;101922.68;;;7.49;100.00
54022;BME280;39936;51.058;17.220;2024-02-21T11:49:02;101877.67;;;7.34;100.00
54022;BME280;39936;51.058;17.220;2024-02-21T11:52:33;101911.76;;;7.72;100.00
54022;BME280;39936;51.058;17.220;2024-02-21T11:56:06;101908.98;;;7.77;100.00
54022;BME280;39936;51.058;17.220;2024-02-21T11:59:33;101904.92;;;7.80;100.00
54022;BME280;39936;51.058;17.220;2024-02-21T12:03:20;101907.70;;;7.83;100.00
54022;BME280;39936;51.058;17.220;2024-02-21T12:06:39;101894.55;;;7.86;100.00
54022;BME280;39936;51.058;17.220;2024-02-21T12:10:02;101899.82;;;7.84;100.00
54022;BME280;39936;51.058;17.220;2024-02-21T12:13:23;101883.83;;;7.77;100.00
54022;BME280;39936;51.058;17.220;2024-02-21T12:17:03;101888.16;;;7.79;100.00
54022;BME280;39936;51.058;17.220;2024-02-21T12:20:26;101887.17;;;7.79;100.00
54022;BME280;39936;51.058;17.220;2024-02-21T12:23:45;101880.36;;;7.76;100.00
54022;BME280;39936;51.058;17.220;2024-02-21T12:27:53;101869.26;;;7.81;100.00
54022;BME280;39936;51.058;17.220;2024-02-21T12:31:12;101856.77;;;7.87;100.00
54022;BME280;39936;51.058;17.220;2024-02-21T12:34:31;101855.73;;;8.00;100.00
54022;BME280;39936;51.058;17.220;2024-02-21T12:37:55;101848.65;;;7.99;100.00
54022;BME280;39936;51.058;17.220;2024-02-21T12:41:18;101814.38;;;7.94;100.00
54022;BME280;39936;51.058;17.220;2024-02-21T12:44:44;101835.35;;;8.27;100.00
54022;BME280;39936;51.058;17.220;2024-02-21T12:52:52;101823.95;;;8.38;100.00
54022;BME280;39936;51.058;17.220;2024-02-21T12:56:31;101816.75;;;8.36;98.40
54022;BME280;39936;51.058;17.220;2024-02-21T12:59:50;101776.23;;;8.17;97.70
54022;BME280;39936;51.058;17.220;2024-02-21T13:03:14;101801.55;;;8.34;96.60
54022;BME280;39936;51.058;17.220;2024-02-21T13:06:34;101774.12;;;8.10;96.62
54022;BME280;39936;51.058;17.220;2024-02-21T13:10:08;101755.44;;;8.06;96.88
54022;BME280;39936;51.058;17.220;2024-02-21T13:13:47;101790.91;;;8.30;97.21
54022;BME280;39936;51.058;17.220;2024-02-21T13:17:42;101793.36;;;8.29;96.79
54022;BME280;39936;51.058;17.220;2024-02-21T13:21:22;101793.34;;;8.26;96.09
54022;BME280;39936;51.058;17.220;2024-02-21T13:25:06;101774.28;;;8.14;96.84
54022;BME280;39936;51.058;17.220;2024-02-21T13:28:53;101788.02;;;8.30;96.73
54022;BME280;39936;51.058;17.220;2024-02-21T13:32:35;101762.52;;;8.14;95.82
54022;BME280;39936;51.058;17.220;2024-02-21T13:35:54;101778.24;;;8.30;96.18
54022;BME280;39936;51.058;17.220;2024-02-21T13:39:25;101770.61;;;8.33;94.54
54022;BME280;39936;51.058;17.220;2024-02-21T13:42:44;101723.20;;;8.14;92.46
54022;BME280;39936;51.058;17.220;2024-02-21T13:46:18;101756.59;;;8.40;91.26
54022;BME280;39936;51.058;17.220;2024-02-21T13:50:08;101749.37;;;8.47;91.26
54022;BME280;39936;51.058;17.220;2024-02-21T13:53:30;101740.70;;;8.48;89.34
54022;BME280;39936;51.058;17.220;2024-02-21T13:56:50;101735.34;;;8.49;89.53
54022;BME280;39936;51.058;17.220;2024-02-21T14:00:08;101740.04;;;8.52;88.88
54022;BME280;39936;51.058;17.220;2024-02-21T14:03:45;101729.61;;;8.58;89.66
54022;BME280;39936;51.058;17.220;2024-02-21T14:07:04;101728.36;;;8.68;90.46
54022;BME280;39936;51.058;17.220;2024-02-21T14:14:52;101717.87;;;8.83;89.67
54022;BME280;39936;51.058;17.220;2024-02-21T14:18:18;101719.20;;;8.87;89.73
54022;BME280;39936;51.058;17.220;2024-02-21T14:21:42;101714.73;;;8.89;89.14
54022;BME280;39936;51.058;17.220;2024-02-21T14:25:43;101703.70;;;9.00;89.36
54022;BME280;39936;51.058;17.220;2024-02-21T14:29:08;101669.91;;;8.76;89.08
54022;BME280;39936;51.058;17.220;2024-02-21T14:32:51;101705.85;;;8.94;88.74
54022;BME280;39936;51.058;17.220;2024-02-21T14:36:56;101713.32;;;8.96;89.12
54022;BME280;39936;51.058;17.220;2024-02-21T14:40:15;101716.54;;;9.11;89.71
54022;BME280;39936;51.058;17.220;2024-02-21T14:43:56;101706.47;;;9.18;88.96
54022;BME280;39936;51.058;17.220;2024-02-21T14:47:19;101706.79;;;9.06;87.73
54022;BME280;39936;51.058;17.220;2024-02-21T14:50:42;101700.93;;;9.00;87.54
54022;BME280;39936;51.058;17.220;2024-02-21T14:54:02;101695.67;;;9.01;88.09
54022;BME280;39936;51.058;17.220;2024-02-21T14:57:24;101684.81;;;8.98;88.14
54022;BME280;39936;51.058;17.220;2024-02-21T15:01:10;101688.64;;;8.97;87.96
54022;BME280;39936;51.058;17.220;2024-02-21T15:04:31;101687.20;;;8.96;88.08
54022;BME280;39936;51.058;17.220;2024-02-21T15:07:56;101688.59;;;8.91;87.76
54022;BME280;39936;51.058;17.220;2024-02-21T15:11:18;101677.88;;;8.89;88.33
54022;BME280;39936;51.058;17.220;2024-02-21T15:14:42;101672.61;;;8.83;87.94
54022;BME280;39936;51.058;17.220;2024-02-21T15:18:21;101680.37;;;8.99;88.51
54022;BME280;39936;51.058;17.220;2024-02-21T15:21:41;101677.66;;;9.00;88.42
54022;BME280;39936;51.058;17.220;2024-02-21T15:25:01;101678.61;;;8.96;88.56
54022;BME280;39936;51.058;17.220;2024-02-21T15:28:47;101676.47;;;8.94;88.74
54022;BME280;39936;51.058;17.220;2024-02-21T15:32:06;101669.50;;;8.96;89.07
54022;BME280;39936;51.058;17.220;2024-02-21T15:35:37;101663.66;;;8.93;89.07
54022;BME280;39936;51.058;17.220;2024-02-21T15:38:52;101655.67;;;8.94;89.24
54022;BME280;39936;51.058;17.220;2024-02-21T15:42:18;101633.17;;;8.83;89.27
54022;BME280;39936;51.058;17.220;2024-02-21T15:45:39;101647.27;;;8.94;89.20
54022;BME280;39936;51.058;17.220;2024-02-21T15:49:10;101649.59;;;8.91;89.23
54022;BME280;39936;51.058;17.220;2024-02-21T15:52:27;101652.48;;;8.82;89.40
54022;BME280;39936;51.058;17.220;2024-02-21T15:55:48;101636.17;;;8.64;90.04
54022;BME280;39936;51.058;17.220;2024-02-21T15:59:06;101610.81;;;8.44;90.36
54022;BME280;39936;51.058;17.220;2024-02-21T16:02:26;101647.45;;;8.69;90.65
54022;BME280;39936;51.058;17.220;2024-02-21T16:05:51;101619.55;;;8.44;90.39
54022;BME280;39936;51.058;17.220;2024-02-21T16:09:27;101634.71;;;8.36;91.26
54022;BME280;39936;51.058;17.220;2024-02-21T16:13:09;101635.12;;;8.22;91.85
54022;BME280;39936;51.058;17.220;2024-02-21T16:16:30;101635.84;;;8.15;92.13
54022;BME280;39936;51.058;17.220;2024-02-21T16:20:09;101639.59;;;8.05;92.77
54022;BME280;39936;51.058;17.220;2024-02-21T16:23:50;101634.32;;;8.04;92.48
54022;BME280;39936;51.058;17.220;2024-02-21T16:27:09;101603.28;;;7.79;91.66
54022;BME280;39936;51.058;17.220;2024-02-21T16:30:52;101641.96;;;8.04;91.06
54022;BME280;39936;51.058;17.220;2024-02-21T16:34:18;101627.74;;;7.93;90.39
54022;BME280;39936;51.058;17.220;2024-02-21T16:38:01;101648.39;;;8.05;89.80
54022;BME280;39936;51.058;17.220;2024-02-21T16:42:15;101640.02;;;7.95;89.44
54022;BME280;39936;51.058;17.220;2024-02-21T16:46:29;101647.20;;;7.96;89.99
54022;BME280;39936;51.058;17.220;2024-02-21T16:50:08;101645.06;;;7.91;90.68
54022;BME280;39936;51.058;17.220;2024-02-21T16:55:36;101636.74;;;7.87;91.02
54022;BME280;39936;51.058;17.220;2024-02-21T16:59:09;101636.28;;;7.86;91.69
54022;BME280;39936;51.058;17.220;2024-02-21T17:02:33;101635.52;;;7.83;92.13
54022;BME280;39936;51.058;17.220;2024-02-21T17:06:15;101604.51;;;7.64;93.06
54022;BME280;39936;51.058;17.220;2024-02-21T17:09:41;101622.03;;;7.69;93.87
54022;BME280;39936;51.058;17.220;2024-02-21T17:13:16;101615.77;;;7.69;93.77
54022;BME280;39936;51.058;17.220;2024-02-21T17:17:17;101605.70;;;7.48;93.39
54022;BME280;39936;51.058;17.220;2024-02-21T17:20:33;101613.19;;;7.34;93.64
54022;BME280;39936;51.058;17.220;2024-02-21T17:23:56;101611.58;;;7.11;94.38
54022;BME280;39936;51.058;17.220;2024-02-21T17:27:10;101609.53;;;6.97;95.37
54022;BME280;39936;51.058;17.220;2024-02-21T17:30:36;101597.33;;;6.71;98.19
54022;BME280;39936;51.058;17.220;2024-02-21T17:34:08;101597.59;;;6.63;99.96
54022;BME280;39936;51.058;17.220;2024-02-21T17:37:36;101590.98;;;6.45;100.00
54022;BME280;39936;51.058;17.220;2024-02-21T17:41:16;101590.34;;;6.32;100.00
54022;BME280;39936;51.058;17.220;2024-02-21T17:45:00;101563.60;;;6.11;100.00
54022;BME280;39936;51.058;17.220;2024-02-21T17:48:36;101579.85;;;6.08;100.00
54022;BME280;39936;51.058;17.220;2024-02-21T17:52:17;101576.34;;;6.00;100.00
54022;BME280;39936;51.058;17.220;2024-02-21T17:55:54;101569.27;;;5.88;100.00
54022;BME280;39936;51.058;17.220;2024-02-21T17:59:42;101562.48;;;5.80;100.00
54022;BME280;39936;51.058;17.220;2024-02-21T18:03:05;101559.27;;;5.73;100.00
54022;BME280;39936;51.058;17.220;2024-02-21T18:06:31;101550.73;;;5.70;100.00
54022;BME280;39936;51.058;17.220;2024-02-21T18:10:02;101545.38;;;5.63;100.00
54022;BME280;39936;51.058;17.220;2024-02-21T18:13:47;101542.30;;;5.56;100.00
54022;BME280;39936;51.058;17.220;2024-02-21T18:17:13;101534.05;;;5.34;100.00
54022;BME280;39936;51.058;17.220;2024-02-21T18:20:54;101541.41;;;5.31;100.00
54022;BME280;39936;51.058;17.220;2024-02-21T18:24:42;101534.51;;;5.26;100.00
54022;BME280;39936;51.058;17.220;2024-02-21T18:28:14;101526.09;;;5.20;100.00
54022;BME280;39936;51.058;17.220;2024-02-21T18:31:34;101527.55;;;5.19;100.00
54022;BME280;39936;51.058;17.220;2024-02-21T18:35:01;101523.02;;;5.23;100.00
54022;BME280;39936;51.058;17.220;2024-02-21T18:38:40;101521.20;;;5.29;100.00
54022;BME280;39936;51.058;17.220;2024-02-21T18:42:36;101491.77;;;5.15;100.00
54022;BME280;39936;51.058;17.220;2024-02-21T18:46:09;101509.97;;;5.32;100.00